createdAt,value
2018-05-27T00:00:40.947Z,4.03
2018-05-27T00:03:08.394Z,3.57
2018-05-27T00:05:35.855Z,4.17
2018-05-27T00:08:03.295Z,3.07
2018-05-27T00:10:30.746Z,3.47
2018-05-27T00:12:58.202Z,3.33
2018-05-27T00:15:25.679Z,4.17
2018-05-27T00:17:53.129Z,3.07
2018-05-27T00:20:20.586Z,3.13
2018-05-27T00:22:48.031Z,2.40
2018-05-27T00:25:15.512Z,2.87
2018-05-27T00:27:42.960Z,2.63
2018-05-27T00:30:10.518Z,3.27
2018-05-27T00:32:37.965Z,2.30
2018-05-27T00:35:05.415Z,2.80
2018-05-27T00:37:32.858Z,2.63
2018-05-27T00:40:00.339Z,2.80
2018-05-27T00:42:27.974Z,3.60
2018-05-27T00:44:55.452Z,3.37
2018-05-27T00:47:22.920Z,2.10
2018-05-27T00:49:50.403Z,7.03
2018-05-27T00:52:17.820Z,2.57
2018-05-27T00:54:45.399Z,3.00
2018-05-27T00:57:12.859Z,2.67
2018-05-27T00:59:40.313Z,2.83
2018-05-27T01:02:08.124Z,3.97
2018-05-27T01:04:35.631Z,2.40
2018-05-27T01:07:04.607Z,2.80
2018-05-27T01:09:32.059Z,3.43
2018-05-27T01:11:59.623Z,2.60
2018-05-27T01:14:27.347Z,3.07
2018-05-27T01:16:54.847Z,3.10
2018-05-27T01:19:22.307Z,2.83
2018-05-27T01:21:49.855Z,5.80
2018-05-27T01:24:17.410Z,2.27
2018-05-27T01:26:44.869Z,3.10
2018-05-27T01:29:12.327Z,4.00
2018-05-27T01:31:39.786Z,4.03
2018-05-27T01:34:07.339Z,5.57
2018-05-27T01:36:34.806Z,5.93
2018-05-27T01:39:03.759Z,5.60
2018-05-27T01:41:31.247Z,5.90
2018-05-27T01:43:58.702Z,6.33
2018-05-27T01:46:26.146Z,3.27
2018-05-27T01:48:53.606Z,3.87
2018-05-27T01:51:21.061Z,5.93
2018-05-27T01:53:48.521Z,6.90
2018-05-27T01:56:16.076Z,6.47
2018-05-27T01:58:43.519Z,6.23
2018-05-27T02:01:10.987Z,9.47
2018-05-27T02:03:38.927Z,5.17
2018-05-27T02:06:06.412Z,8.57
2018-05-27T02:08:33.991Z,6.80
2018-05-27T02:11:02.965Z,8.53
2018-05-27T02:13:30.420Z,8.40
2018-05-27T02:15:57.983Z,6.13
2018-05-27T02:18:25.543Z,8.27
2018-05-27T02:20:53.098Z,7.53
2018-05-27T02:23:20.556Z,6.47
2018-05-27T02:25:48.011Z,7.67
2018-05-27T02:28:15.454Z,6.57
2018-05-27T02:30:43.027Z,6.27
2018-05-27T02:33:10.583Z,6.77
2018-05-27T02:35:38.143Z,5.53
2018-05-27T02:38:05.587Z,7.57
2018-05-27T02:40:33.146Z,7.03
2018-05-27T02:43:00.880Z,9.30
2018-05-27T02:45:28.360Z,9.83
2018-05-27T02:47:55.827Z,10.47
2018-05-27T02:50:23.296Z,7.07
2018-05-27T02:52:50.751Z,10.43
2018-05-27T02:55:18.301Z,9.43
2018-05-27T02:57:45.856Z,9.50
2018-05-27T03:00:13.311Z,11.37
2018-05-27T03:02:40.871Z,9.70
2018-05-27T03:05:08.431Z,11.33
2018-05-27T03:07:35.992Z,8.90
2018-05-27T03:10:03.452Z,9.57
2018-05-27T03:12:30.998Z,10.43
2018-05-27T03:14:58.452Z,7.43
2018-05-27T03:17:25.906Z,15.17
2018-05-27T03:19:53.362Z,12.60
2018-05-27T03:22:20.827Z,10.50
2018-05-27T03:24:48.393Z,10.80
2018-05-27T03:27:15.861Z,13.97
2018-05-27T03:29:43.391Z,10.27
2018-05-27T03:32:10.959Z,10.23
2018-05-27T03:34:38.416Z,11.43
2018-05-27T03:37:05.967Z,8.73
2018-05-27T03:39:33.587Z,13.80
2018-05-27T03:42:01.093Z,12.00
2018-05-27T03:44:28.533Z,9.20
2018-05-27T03:46:56.097Z,12.13
2018-05-27T03:49:23.547Z,10.43
2018-05-27T03:51:51.043Z,10.23
2018-05-27T03:54:18.492Z,10.63
2018-05-27T03:56:45.955Z,12.60
2018-05-27T03:59:14.176Z,11.50
2018-05-27T04:01:41.658Z,13.23
2018-05-27T04:04:21.085Z,8.23
2018-05-27T04:07:00.477Z,12.13
2018-05-27T04:09:29.623Z,10.57
2018-05-27T04:11:57.179Z,11.23
2018-05-27T04:14:24.630Z,8.27
2018-05-27T04:16:52.094Z,8.63
2018-05-27T04:19:19.539Z,9.43
2018-05-27T04:21:47.103Z,7.30
2018-05-27T04:24:14.551Z,11.27
2018-05-27T04:26:42.007Z,8.23
2018-05-27T04:29:09.472Z,9.00
2018-05-27T04:31:36.922Z,7.23
2018-05-27T04:34:04.371Z,5.97
2018-05-27T04:36:31.877Z,9.13
2018-05-27T04:38:59.298Z,8.50
2018-05-27T04:41:26.860Z,7.83
2018-05-27T04:43:54.307Z,6.27
2018-05-27T04:46:21.759Z,6.17
2018-05-27T04:48:49.211Z,7.37
2018-05-27T04:51:16.667Z,7.17
2018-05-27T04:53:44.122Z,6.50
2018-05-27T04:56:11.592Z,9.87
2018-05-27T04:58:39.143Z,6.57
2018-05-27T05:01:06.607Z,7.90
2018-05-27T05:03:34.172Z,6.53
2018-05-27T05:06:01.725Z,6.03
2018-05-27T05:08:29.175Z,8.47
2018-05-27T05:10:56.640Z,10.60
2018-05-27T05:13:24.096Z,8.50
2018-05-27T05:15:51.542Z,7.63
2018-05-27T05:18:18.995Z,7.07
2018-05-27T05:20:46.445Z,7.53
2018-05-27T05:23:14.115Z,6.33
2018-05-27T05:25:41.568Z,7.53
2018-05-27T05:28:09.029Z,7.93
2018-05-27T05:30:36.496Z,6.23
2018-05-27T05:33:03.946Z,6.40
2018-05-27T05:35:31.396Z,5.60
2018-05-27T05:37:58.867Z,6.80
2018-05-27T05:40:26.304Z,6.23
2018-05-27T05:42:53.755Z,6.20
2018-05-27T05:45:21.207Z,6.50
2018-05-27T05:47:48.997Z,5.63
2018-05-27T05:50:16.443Z,7.20
2018-05-27T05:52:43.903Z,6.60
2018-05-27T05:55:11.475Z,6.33
2018-05-27T05:57:39.016Z,5.53
2018-05-27T06:00:06.571Z,5.73
2018-05-27T06:02:34.139Z,6.50
2018-05-27T06:05:01.583Z,5.37
2018-05-27T06:07:29.035Z,5.37
2018-05-27T06:09:56.483Z,5.37
2018-05-27T06:12:23.962Z,5.40
2018-05-27T06:14:51.520Z,4.87
2018-05-27T06:17:19.069Z,5.67
2018-05-27T06:19:46.522Z,4.87
2018-05-27T06:22:13.979Z,5.87
2018-05-27T06:24:41.427Z,5.30
2018-05-27T06:27:08.883Z,4.90
2018-05-27T06:29:36.336Z,4.30
2018-05-27T06:32:03.941Z,4.77
2018-05-27T06:34:31.390Z,4.60
2018-05-27T06:36:58.822Z,6.13
2018-05-27T06:39:26.379Z,5.03
2018-05-27T06:41:53.827Z,4.80
2018-05-27T06:44:21.397Z,5.50
2018-05-27T06:46:48.852Z,4.77
2018-05-27T06:49:16.681Z,4.63
2018-05-27T06:51:44.136Z,4.37
2018-05-27T06:54:11.594Z,4.77
2018-05-27T06:56:39.187Z,5.20
2018-05-27T06:59:06.634Z,4.63
2018-05-27T07:01:34.173Z,5.80
2018-05-27T07:04:01.664Z,4.70
2018-05-27T07:06:29.936Z,4.27
2018-05-27T07:08:57.396Z,5.10
2018-05-27T07:11:24.844Z,5.33
2018-05-27T07:13:52.308Z,5.30
2018-05-27T07:16:19.764Z,4.57
2018-05-27T07:18:47.219Z,5.73
2018-05-27T07:21:14.669Z,4.77
2018-05-27T07:23:42.980Z,5.17
2018-05-27T07:26:11.191Z,4.70
2018-05-27T07:28:38.650Z,4.57
2018-05-27T07:31:06.108Z,5.63
2018-05-27T07:33:33.588Z,4.53
2018-05-27T07:36:01.032Z,4.70
2018-05-27T07:38:28.504Z,7.00
2018-05-27T07:40:56.052Z,19.40
2018-05-27T07:43:23.503Z,18.30
2018-05-27T07:45:51.371Z,14.00
2018-05-27T07:48:18.836Z,12.27
2018-05-27T07:50:46.291Z,14.80
2018-05-27T07:53:13.851Z,19.73
2018-05-27T07:55:41.404Z,17.83
2018-05-27T07:58:08.867Z,10.30
2018-05-27T08:00:36.420Z,13.80
2018-05-27T08:03:03.883Z,8.17
2018-05-27T08:05:31.328Z,12.27
2018-05-27T08:07:58.791Z,11.77
2018-05-27T08:10:26.249Z,8.73
2018-05-27T08:12:53.695Z,8.67
2018-05-27T08:15:21.263Z,7.07
2018-05-27T08:17:48.724Z,7.10
2018-05-27T08:20:16.284Z,7.93
2018-05-27T08:22:43.815Z,7.70
2018-05-27T08:25:11.287Z,7.97
2018-05-27T08:27:38.737Z,7.37
2018-05-27T08:30:06.310Z,12.83
2018-05-27T08:32:33.859Z,8.63
2018-05-27T08:35:01.731Z,13.43
2018-05-27T08:37:29.135Z,9.03
2018-05-27T08:39:56.593Z,17.47
2018-05-27T08:42:24.050Z,13.73
2018-05-27T08:44:51.504Z,13.73
2018-05-27T08:47:19.004Z,12.53
2018-05-27T08:49:46.467Z,10.43
2018-05-27T08:52:14.018Z,12.93
2018-05-27T08:54:41.962Z,8.43
2018-05-27T08:57:09.438Z,9.20
2018-05-27T08:59:36.895Z,6.63
2018-05-27T09:02:04.347Z,7.07
2018-05-27T09:04:31.826Z,6.73
2018-05-27T09:06:59.281Z,7.43
2018-05-27T09:09:26.820Z,4.57
2018-05-27T09:11:54.380Z,5.87
2018-05-27T09:14:21.843Z,9.20
2018-05-27T09:16:49.396Z,5.00
2018-05-27T09:19:16.959Z,4.47
2018-05-27T09:21:44.406Z,7.13
2018-05-27T09:24:11.863Z,6.70
2018-05-27T09:26:39.315Z,4.23
2018-05-27T09:29:06.772Z,5.63
2018-05-27T09:31:34.335Z,4.53
2018-05-27T09:34:01.887Z,8.03
2018-05-27T09:36:29.343Z,5.10
2018-05-27T09:38:56.911Z,6.57
2018-05-27T09:41:24.383Z,6.97
2018-05-27T09:43:51.827Z,7.53
2018-05-27T09:46:19.278Z,9.30
2018-05-27T09:48:46.744Z,8.67
2018-05-27T09:51:14.291Z,5.10
2018-05-27T09:53:43.452Z,7.27
2018-05-27T09:56:10.935Z,5.47
2018-05-27T09:58:38.383Z,6.97
2018-05-27T10:01:05.846Z,6.73
2018-05-27T10:03:33.299Z,11.10
2018-05-27T10:06:00.860Z,9.67
2018-05-27T10:08:28.316Z,12.37
2018-05-27T10:10:56.183Z,15.23
2018-05-27T10:13:23.639Z,7.70
2018-05-27T10:15:51.199Z,7.73
2018-05-27T10:18:18.663Z,11.83
2018-05-27T10:20:46.290Z,11.10
2018-05-27T10:23:13.775Z,13.90
2018-05-27T10:25:41.327Z,8.57
2018-05-27T10:28:09.060Z,14.40
2018-05-27T10:30:36.548Z,13.13
2018-05-27T10:33:04.004Z,13.73
2018-05-27T10:35:31.457Z,8.80
2018-05-27T10:37:58.927Z,8.63
2018-05-27T10:40:26.379Z,7.60
2018-05-27T10:42:53.827Z,7.50
2018-05-27T10:45:21.292Z,6.33
2018-05-27T10:47:48.744Z,6.43
2018-05-27T10:50:16.211Z,13.53
2018-05-27T10:52:43.660Z,9.80
2018-05-27T10:55:11.134Z,16.23
2018-05-27T10:57:38.677Z,6.57
2018-05-27T11:00:06.130Z,8.50
2018-05-27T11:02:33.675Z,7.50
2018-05-27T11:05:01.241Z,4.90
2018-05-27T11:07:28.695Z,7.03
2018-05-27T11:09:56.151Z,4.63
2018-05-27T11:12:23.606Z,3.37
2018-05-27T11:14:51.056Z,8.27
2018-05-27T11:17:18.525Z,7.83
2018-05-27T11:19:46.074Z,8.73
2018-05-27T11:22:13.808Z,4.20
2018-05-27T11:24:41.301Z,9.13
2018-05-27T11:27:08.859Z,10.20
2018-05-27T11:29:36.311Z,4.80
2018-05-27T11:32:03.872Z,8.50
2018-05-27T11:34:31.393Z,5.50
2018-05-27T11:36:58.896Z,5.20
2018-05-27T11:39:26.956Z,3.37
2018-05-27T11:41:54.512Z,5.53
2018-05-27T11:44:21.954Z,3.00
2018-05-27T11:46:50.035Z,3.13
2018-05-27T11:49:17.497Z,5.07
2018-05-27T11:51:44.956Z,3.77
2018-05-27T11:54:12.512Z,5.10
2018-05-27T11:56:40.068Z,5.87
2018-05-27T11:59:07.619Z,6.10
2018-05-27T12:01:35.184Z,5.33
2018-05-27T12:04:02.735Z,4.27
2018-05-27T12:06:30.192Z,3.60
2018-05-27T12:08:57.658Z,4.20
2018-05-27T12:11:25.298Z,4.00
2018-05-27T12:13:52.751Z,6.40
2018-05-27T12:16:20.215Z,3.73
2018-05-27T12:18:47.671Z,3.40
2018-05-27T12:21:15.128Z,5.90
2018-05-27T12:23:42.591Z,4.13
2018-05-27T12:26:10.046Z,4.47
2018-05-27T12:28:37.507Z,3.23
2018-05-27T12:31:04.968Z,5.33
2018-05-27T12:33:33.054Z,4.83
2018-05-27T12:36:00.583Z,3.27
2018-05-27T12:38:28.035Z,4.33
2018-05-27T12:40:55.491Z,3.40
2018-05-27T12:43:22.944Z,4.73
2018-05-27T12:45:50.506Z,4.00
2018-05-27T12:48:17.971Z,3.87
2018-05-27T12:50:45.423Z,5.00
2018-05-27T12:53:12.884Z,4.47
2018-05-27T12:55:40.340Z,6.30
2018-05-27T12:58:07.791Z,3.40
2018-05-27T13:00:35.247Z,3.27
2018-05-27T13:03:02.695Z,3.03
2018-05-27T13:05:30.167Z,3.93
2018-05-27T13:07:58.435Z,3.63
2018-05-27T13:10:25.900Z,5.43
2018-05-27T13:12:53.360Z,3.40
2018-05-27T13:15:21.625Z,3.80
2018-05-27T13:17:49.454Z,5.13
2018-05-27T13:20:16.949Z,3.37
2018-05-27T13:22:44.513Z,4.07
2018-05-27T13:25:12.231Z,4.00
2018-05-27T13:27:39.687Z,3.43
2018-05-27T13:30:07.226Z,4.00
2018-05-27T13:32:34.731Z,4.87
2018-05-27T13:35:02.186Z,4.53
2018-05-27T13:37:29.657Z,3.40
2018-05-27T13:39:57.216Z,3.30
2018-05-27T13:42:24.671Z,3.20
2018-05-27T13:44:52.131Z,3.70
2018-05-27T13:47:19.589Z,3.67
2018-05-27T13:49:47.038Z,4.17
2018-05-27T13:52:14.593Z,3.97
2018-05-27T13:54:42.040Z,3.40
2018-05-27T13:57:09.499Z,3.20
2018-05-27T13:59:36.942Z,3.23
2018-05-27T14:02:04.411Z,4.03
2018-05-27T14:04:31.967Z,3.07
2018-05-27T14:06:59.531Z,3.23
2018-05-27T14:09:26.991Z,3.13
2018-05-27T14:11:54.445Z,2.97
2018-05-27T14:14:21.891Z,2.90
2018-05-27T14:16:49.355Z,3.10
2018-05-27T14:19:16.800Z,3.77
2018-05-27T14:21:44.268Z,3.20
2018-05-27T14:24:11.859Z,3.70
2018-05-27T14:26:40.796Z,3.43
2018-05-27T14:29:08.263Z,8.43
2018-05-27T14:31:35.823Z,7.23
2018-05-27T14:34:03.267Z,6.80
2018-05-27T14:36:30.732Z,7.47
2018-05-27T14:38:58.181Z,3.73
2018-05-27T14:41:25.647Z,3.57
2018-05-27T14:43:53.110Z,6.23
2018-05-27T14:46:20.676Z,3.83
2018-05-27T14:48:48.229Z,6.47
2018-05-27T14:51:15.679Z,4.00
2018-05-27T14:53:43.231Z,4.53
2018-05-27T14:56:10.684Z,5.43
2018-05-27T14:58:38.139Z,4.90
2018-05-27T15:01:05.603Z,4.57
2018-05-27T15:03:33.159Z,4.43
2018-05-27T15:06:00.629Z,4.30
2018-05-27T15:08:28.089Z,4.40
2018-05-27T15:10:55.637Z,4.40
2018-05-27T15:13:23.324Z,5.83
2018-05-27T15:15:51.564Z,4.40
2018-05-27T15:18:19.020Z,4.00
2018-05-27T15:20:46.479Z,5.43
2018-05-27T15:23:14.308Z,4.47
2018-05-27T15:25:41.763Z,5.30
2018-05-27T15:28:09.259Z,10.83
2018-05-27T15:30:36.823Z,6.30
2018-05-27T15:33:04.272Z,6.20
2018-05-27T15:35:31.827Z,4.87
2018-05-27T15:37:59.287Z,6.23
2018-05-27T15:40:26.735Z,6.10
2018-05-27T15:42:54.305Z,4.93
2018-05-27T15:45:21.863Z,4.97
2018-05-27T15:47:49.418Z,4.63
2018-05-27T15:50:16.859Z,4.60
2018-05-27T15:52:44.394Z,4.33
2018-05-27T15:55:11.879Z,3.90
2018-05-27T15:57:39.343Z,4.87
2018-05-27T16:00:06.787Z,4.47
2018-05-27T16:02:34.244Z,4.27
2018-05-27T16:05:01.699Z,4.53
2018-05-27T16:07:29.139Z,4.20
2018-05-27T16:09:56.588Z,4.00
2018-05-27T16:12:24.039Z,4.30
2018-05-27T16:14:51.491Z,4.83
2018-05-27T16:17:18.939Z,5.90
2018-05-27T16:19:46.383Z,6.60
2018-05-27T16:22:14.607Z,4.27
2018-05-27T16:24:42.050Z,5.00
2018-05-27T16:27:09.507Z,4.53
2018-05-27T16:29:36.956Z,4.40
2018-05-27T16:32:04.441Z,3.83
2018-05-27T16:34:31.999Z,4.47
2018-05-27T16:36:59.835Z,4.43
2018-05-27T16:39:27.293Z,4.30
2018-05-27T16:41:54.739Z,3.90
2018-05-27T16:44:22.223Z,4.30
2018-05-27T16:46:49.685Z,5.67
2018-05-27T16:49:17.140Z,8.27
2018-05-27T16:51:44.691Z,7.27
2018-05-27T16:54:12.151Z,5.80
2018-05-27T16:56:39.843Z,10.97
2018-05-27T16:59:08.096Z,7.57
2018-05-27T17:01:35.821Z,8.50
2018-05-27T17:04:03.274Z,6.67
2018-05-27T17:06:30.727Z,12.30
2018-05-27T17:08:58.180Z,6.33
2018-05-27T17:11:25.682Z,7.10
2018-05-27T17:13:53.135Z,9.63
2018-05-27T17:16:20.584Z,7.10
2018-05-27T17:18:48.151Z,5.23
2018-05-27T17:21:15.600Z,12.50
2018-05-27T17:23:43.154Z,5.30
2018-05-27T17:26:10.612Z,5.20
2018-05-27T17:28:38.064Z,5.17
2018-05-27T17:31:05.522Z,5.07
2018-05-27T17:33:32.971Z,9.60
2018-05-27T17:36:00.458Z,7.40
2018-05-27T17:38:27.891Z,6.63
2018-05-27T17:40:55.347Z,5.30
2018-05-27T17:43:22.903Z,5.90
2018-05-27T17:45:50.347Z,5.07
2018-05-27T17:48:17.811Z,4.97
2018-05-27T17:50:45.281Z,21.03
2018-05-27T17:53:12.830Z,6.00
2018-05-27T17:55:40.288Z,5.57
2018-05-27T17:58:07.732Z,5.53
2018-05-27T18:00:35.188Z,4.90
2018-05-27T18:03:02.656Z,6.23
2018-05-27T18:05:30.115Z,5.27
2018-05-27T18:07:57.651Z,8.80
2018-05-27T18:10:25.156Z,6.00
2018-05-27T18:12:52.689Z,4.97
2018-05-27T18:15:20.136Z,5.13
2018-05-27T18:17:47.591Z,7.60
2018-05-27T18:20:15.049Z,9.97
2018-05-27T18:22:42.511Z,7.70
2018-05-27T18:25:09.967Z,7.43
2018-05-27T18:27:37.421Z,6.57
2018-05-27T18:30:04.879Z,7.37
2018-05-27T18:32:32.327Z,8.00
2018-05-27T18:34:59.776Z,6.80
2018-05-27T18:37:27.214Z,6.67
2018-05-27T18:39:54.673Z,7.33
2018-05-27T18:42:22.115Z,8.93
2018-05-27T18:44:49.621Z,9.17
2018-05-27T18:47:17.167Z,10.83
2018-05-27T18:49:44.627Z,10.43
2018-05-27T18:52:12.081Z,11.23
2018-05-27T18:54:39.541Z,9.27
2018-05-27T18:57:06.984Z,7.60
2018-05-27T18:59:34.481Z,5.23
2018-05-27T19:02:01.891Z,7.57
2018-05-27T19:04:29.351Z,11.77
2018-05-27T19:06:56.798Z,5.97
2018-05-27T19:09:24.274Z,7.33
2018-05-27T19:11:51.723Z,8.53
2018-05-27T19:14:19.175Z,9.07
2018-05-27T19:16:46.636Z,7.77
2018-05-27T19:19:14.091Z,9.97
2018-05-27T19:21:41.539Z,6.17
2018-05-27T19:24:09.203Z,8.90
2018-05-27T19:26:36.651Z,9.50
2018-05-27T19:29:04.112Z,5.70
2018-05-27T19:31:31.567Z,5.40
2018-05-27T19:33:59.046Z,4.67
2018-05-27T19:36:26.496Z,4.70
2018-05-27T19:38:54.055Z,5.87
2018-05-27T19:41:21.495Z,4.50
2018-05-27T19:43:48.946Z,5.67
2018-05-27T19:46:16.415Z,6.57
2018-05-27T19:48:43.987Z,6.60
2018-05-27T19:51:11.445Z,6.00
2018-05-27T19:53:39.777Z,6.03
2018-05-27T19:56:07.398Z,5.17
2018-05-27T19:58:34.848Z,5.97
2018-05-27T20:01:02.295Z,4.33
2018-05-27T20:03:29.830Z,5.70
2018-05-27T20:05:57.277Z,8.00
2018-05-27T20:08:24.743Z,8.10
2018-05-27T20:10:52.200Z,6.90
2018-05-27T20:13:19.643Z,6.30
2018-05-27T20:15:47.185Z,5.37
2018-05-27T20:18:14.619Z,17.70
2018-05-27T20:20:42.127Z,10.73
2018-05-27T20:23:09.575Z,12.57
2018-05-27T20:25:37.031Z,5.77
2018-05-27T20:28:04.486Z,4.43
2018-05-27T20:30:31.955Z,6.23
2018-05-27T20:32:59.411Z,4.77
2018-05-27T20:35:26.986Z,7.17
2018-05-27T20:37:54.435Z,6.70
2018-05-27T20:40:21.892Z,8.00
2018-05-27T20:42:49.443Z,4.40
2018-05-27T20:45:17.068Z,4.83
2018-05-27T20:47:44.507Z,5.20
2018-05-27T20:50:11.958Z,6.60
2018-05-27T20:52:39.407Z,5.77
2018-05-27T20:55:06.927Z,4.90
2018-05-27T20:57:34.371Z,5.67
2018-05-27T21:00:01.964Z,5.97
2018-05-27T21:02:29.411Z,5.97
2018-05-27T21:04:56.970Z,4.17
2018-05-27T21:07:24.509Z,6.13
2018-05-27T21:09:51.964Z,4.43
2018-05-27T21:12:19.427Z,6.20
2018-05-27T21:14:46.975Z,6.30
2018-05-27T21:17:14.426Z,6.27
2018-05-27T21:19:41.887Z,7.20
2018-05-27T21:22:09.330Z,6.20
2018-05-27T21:24:36.809Z,3.73
2018-05-27T21:27:04.337Z,4.43
2018-05-27T21:29:31.819Z,4.27
2018-05-27T21:31:59.271Z,3.67
2018-05-27T21:34:26.832Z,6.37
2018-05-27T21:36:54.398Z,4.33
2018-05-27T21:39:21.951Z,4.17
2018-05-27T21:41:49.406Z,3.80
2018-05-27T21:44:16.846Z,6.30
2018-05-27T21:46:44.419Z,21.80
2018-05-27T21:49:11.870Z,4.70
2018-05-27T21:51:39.446Z,4.07
2018-05-27T21:54:06.980Z,3.80
2018-05-27T21:56:34.551Z,5.43
2018-05-27T21:59:02.071Z,4.10
2018-05-27T22:01:29.513Z,4.03
2018-05-27T22:03:57.163Z,5.17
2018-05-27T22:06:24.947Z,4.10
2018-05-27T22:08:52.507Z,4.23
2018-05-27T22:11:20.001Z,4.20
2018-05-27T22:13:47.827Z,5.53
2018-05-27T22:16:15.283Z,4.17
2018-05-27T22:18:42.739Z,4.43
2018-05-27T22:21:10.202Z,4.27
2018-05-27T22:23:37.685Z,4.47
2018-05-27T22:26:05.247Z,4.70
2018-05-27T22:28:32.694Z,4.20
2018-05-27T22:31:00.255Z,4.53
2018-05-27T22:33:27.704Z,4.70
2018-05-27T22:35:55.156Z,4.20
2018-05-27T22:38:22.603Z,4.53
2018-05-27T22:40:50.080Z,4.03
2018-05-27T22:43:17.544Z,4.37
2018-05-27T22:45:45.004Z,6.33
2018-05-27T22:48:12.550Z,4.20
2018-05-27T22:50:40.000Z,4.03
2018-05-27T22:53:07.456Z,4.13
2018-05-27T22:55:34.919Z,5.97
2018-05-27T22:58:02.472Z,4.17
2018-05-27T23:00:30.216Z,4.53
2018-05-27T23:02:57.687Z,4.33
2018-05-27T23:05:25.151Z,4.13
2018-05-27T23:07:52.720Z,4.70
2018-05-27T23:10:20.272Z,4.50
2018-05-27T23:12:47.822Z,4.20
2018-05-27T23:15:15.279Z,3.97
2018-05-27T23:17:42.839Z,4.10
2018-05-27T23:20:10.291Z,4.30
2018-05-27T23:22:37.747Z,4.50
2018-05-27T23:25:05.214Z,3.90
2018-05-27T23:27:32.767Z,4.53
2018-05-27T23:30:00.223Z,4.50
2018-05-27T23:32:27.680Z,4.60
2018-05-27T23:34:55.128Z,4.53
2018-05-27T23:37:22.587Z,4.63
2018-05-27T23:39:50.047Z,4.30
2018-05-27T23:42:17.502Z,4.43
2018-05-27T23:44:44.972Z,4.40
2018-05-27T23:47:12.411Z,4.33
2018-05-27T23:49:39.872Z,3.93
2018-05-27T23:52:07.427Z,4.27
2018-05-27T23:54:34.875Z,4.13
2018-05-27T23:57:02.336Z,4.10
2018-05-27T23:59:29.800Z,3.80
